sensor_id;sensor_type;location;lat;lon;timestamp;P1;durP1;ratioP1;P2;durP2;ratioP2
55869;SDS011;41790;50.940;4.560;2023-02-28T00:01:23;4.93;;;3.20;;
55869;SDS011;41790;50.940;4.560;2023-02-28T00:03:52;3.42;;;2.42;;
55869;SDS011;41790;50.940;4.560;2023-02-28T00:06:18;4.55;;;2.83;;
55869;SDS011;41790;50.940;4.560;2023-02-28T00:08:53;5.32;;;2.42;;
55869;SDS011;41790;50.940;4.560;2023-02-28T00:11:19;10.23;;;3.13;;
55869;SDS011;41790;50.940;4.560;2023-02-28T00:13:47;7.78;;;2.97;;
55869;SDS011;41790;50.940;4.560;2023-02-28T00:16:17;7.55;;;3.17;;
55869;SDS011;41790;50.940;4.560;2023-02-28T00:18:47;6.63;;;2.90;;
55869;SDS011;41790;50.940;4.560;2023-02-28T00:21:13;7.32;;;3.33;;
55869;SDS011;41790;50.940;4.560;2023-02-28T00:23:42;3.70;;;2.42;;
55869;SDS011;41790;50.940;4.560;2023-02-28T00:26:09;6.55;;;3.00;;
55869;SDS011;41790;50.940;4.560;2023-02-28T00:28:35;5.10;;;3.00;;
55869;SDS011;41790;50.940;4.560;2023-02-28T00:31:04;5.75;;;3.00;;
55869;SDS011;41790;50.940;4.560;2023-02-28T00:33:30;6.93;;;3.38;;
55869;SDS011;41790;50.940;4.560;2023-02-28T00:36:03;6.90;;;2.72;;
55869;SDS011;41790;50.940;4.560;2023-02-28T00:38:30;5.32;;;3.10;;
55869;SDS011;41790;50.940;4.560;2023-02-28T00:40:56;3.78;;;2.78;;
55869;SDS011;41790;50.940;4.560;2023-02-28T00:43:23;4.20;;;3.13;;
55869;SDS011;41790;50.940;4.560;2023-02-28T00:45:49;4.07;;;3.35;;
55869;SDS011;41790;50.940;4.560;2023-02-28T00:48:15;6.43;;;3.17;;
55869;SDS011;41790;50.940;4.560;2023-02-28T00:50:41;5.57;;;3.28;;
55869;SDS011;41790;50.940;4.560;2023-02-28T00:53:07;11.90;;;4.05;;
55869;SDS011;41790;50.940;4.560;2023-02-28T00:55:33;7.53;;;3.53;;
55869;SDS011;41790;50.940;4.560;2023-02-28T00:57:58;5.72;;;3.75;;
55869;SDS011;41790;50.940;4.560;2023-02-28T01:00:24;7.03;;;3.85;;
55869;SDS011;41790;50.940;4.560;2023-02-28T01:02:50;4.80;;;2.90;;
55869;SDS011;41790;50.940;4.560;2023-02-28T01:05:16;5.07;;;3.22;;
55869;SDS011;41790;50.940;4.560;2023-02-28T01:07:42;3.58;;;2.95;;
55869;SDS011;41790;50.940;4.560;2023-02-28T01:10:08;8.48;;;3.60;;
55869;SDS011;41790;50.940;4.560;2023-02-28T01:12:38;10.93;;;3.70;;
55869;SDS011;41790;50.940;4.560;2023-02-28T01:15:04;5.78;;;3.42;;
55869;SDS011;41790;50.940;4.560;2023-02-28T01:17:33;5.53;;;3.72;;
55869;SDS011;41790;50.940;4.560;2023-02-28T01:19:59;5.25;;;3.40;;
55869;SDS011;41790;50.940;4.560;2023-02-28T01:22:25;13.93;;;3.05;;
55869;SDS011;41790;50.940;4.560;2023-02-28T01:24:51;9.60;;;3.80;;
55869;SDS011;41790;50.940;4.560;2023-02-28T01:27:20;6.35;;;3.78;;
55869;SDS011;41790;50.940;4.560;2023-02-28T01:29:45;5.55;;;3.85;;
55869;SDS011;41790;50.940;4.560;2023-02-28T01:32:11;4.63;;;2.60;;
55869;SDS011;41790;50.940;4.560;2023-02-28T01:34:37;6.15;;;2.88;;
55869;SDS011;41790;50.940;4.560;2023-02-28T01:37:03;5.40;;;2.97;;
55869;SDS011;41790;50.940;4.560;2023-02-28T01:39:29;6.13;;;3.38;;
55869;SDS011;41790;50.940;4.560;2023-02-28T01:41:55;7.03;;;3.58;;
55869;SDS011;41790;50.940;4.560;2023-02-28T01:47:36;6.30;;;3.22;;
55869;SDS011;41790;50.940;4.560;2023-02-28T01:50:07;8.57;;;3.83;;
55869;SDS011;41790;50.940;4.560;2023-02-28T01:52:49;7.97;;;3.90;;
55869;SDS011;41790;50.940;4.560;2023-02-28T01:55:21;5.38;;;3.50;;
55869;SDS011;41790;50.940;4.560;2023-02-28T01:57:56;5.13;;;2.63;;
55869;SDS011;41790;50.940;4.560;2023-02-28T02:00:26;5.25;;;3.40;;
55869;SDS011;41790;50.940;4.560;2023-02-28T02:02:55;6.20;;;4.30;;
55869;SDS011;41790;50.940;4.560;2023-02-28T02:05:28;4.78;;;3.55;;
55869;SDS011;41790;50.940;4.560;2023-02-28T02:08:02;16.02;;;4.80;;
55869;SDS011;41790;50.940;4.560;2023-02-28T02:13:41;4.10;;;3.30;;
55869;SDS011;41790;50.940;4.560;2023-02-28T02:27:28;6.30;;;4.03;;
55869;SDS011;41790;50.940;4.560;2023-02-28T02:41:28;16.02;;;4.00;;
55869;SDS011;41790;50.940;4.560;2023-02-28T02:44:24;7.47;;;4.00;;
55869;SDS011;41790;50.940;4.560;2023-02-28T02:47:04;6.13;;;3.92;;
55869;SDS011;41790;50.940;4.560;2023-02-28T02:49:36;7.03;;;4.05;;
55869;SDS011;41790;50.940;4.560;2023-02-28T02:52:04;7.45;;;3.78;;
55869;SDS011;41790;50.940;4.560;2023-02-28T02:54:34;10.27;;;4.47;;
55869;SDS011;41790;50.940;4.560;2023-02-28T02:57:07;10.32;;;3.97;;
55869;SDS011;41790;50.940;4.560;2023-02-28T02:59:37;4.93;;;3.38;;
55869;SDS011;41790;50.940;4.560;2023-02-28T03:02:14;8.13;;;4.50;;
55869;SDS011;41790;50.940;4.560;2023-02-28T03:04:45;5.63;;;3.95;;
55869;SDS011;41790;50.940;4.560;2023-02-28T03:07:19;5.38;;;3.38;;
55869;SDS011;41790;50.940;4.560;2023-02-28T03:09:49;4.63;;;3.22;;
55869;SDS011;41790;50.940;4.560;2023-02-28T03:12:19;6.43;;;3.83;;
55869;SDS011;41790;50.940;4.560;2023-02-28T03:14:55;6.47;;;3.88;;
55869;SDS011;41790;50.940;4.560;2023-02-28T03:17:36;5.43;;;3.45;;
55869;SDS011;41790;50.940;4.560;2023-02-28T03:23:12;5.50;;;3.90;;
55869;SDS011;41790;50.940;4.560;2023-02-28T03:34:03;7.38;;;3.53;;
55869;SDS011;41790;50.940;4.560;2023-02-28T03:36:57;6.25;;;3.28;;
55869;SDS011;41790;50.940;4.560;2023-02-28T03:39:39;9.75;;;3.75;;
55869;SDS011;41790;50.940;4.560;2023-02-28T03:42:10;5.25;;;3.58;;
55869;SDS011;41790;50.940;4.560;2023-02-28T03:44:42;7.43;;;3.85;;
55869;SDS011;41790;50.940;4.560;2023-02-28T03:49:59;6.07;;;3.88;;
55869;SDS011;41790;50.940;4.560;2023-02-28T03:52:49;5.80;;;3.75;;
55869;SDS011;41790;50.940;4.560;2023-02-28T03:55:32;7.63;;;3.78;;
55869;SDS011;41790;50.940;4.560;2023-02-28T04:00:34;6.45;;;3.63;;
55869;SDS011;41790;50.940;4.560;2023-02-28T04:03:05;6.35;;;3.42;;
55869;SDS011;41790;50.940;4.560;2023-02-28T04:05:34;6.38;;;4.25;;
55869;SDS011;41790;50.940;4.560;2023-02-28T04:08:22;4.65;;;3.33;;
55869;SDS011;41790;50.940;4.560;2023-02-28T04:10:58;9.90;;;4.80;;
55869;SDS011;41790;50.940;4.560;2023-02-28T04:13:33;7.82;;;3.78;;
55869;SDS011;41790;50.940;4.560;2023-02-28T04:15:59;6.57;;;3.58;;
55869;SDS011;41790;50.940;4.560;2023-02-28T04:18:27;6.70;;;3.95;;
55869;SDS011;41790;50.940;4.560;2023-02-28T04:20:53;6.10;;;4.25;;
55869;SDS011;41790;50.940;4.560;2023-02-28T04:23:27;10.02;;;4.35;;
55869;SDS011;41790;50.940;4.560;2023-02-28T04:25:54;6.35;;;3.92;;
55869;SDS011;41790;50.940;4.560;2023-02-28T04:28:20;8.38;;;4.45;;
55869;SDS011;41790;50.940;4.560;2023-02-28T04:30:59;8.05;;;4.57;;
55869;SDS011;41790;50.940;4.560;2023-02-28T04:33:27;5.05;;;3.22;;
55869;SDS011;41790;50.940;4.560;2023-02-28T04:38:27;9.93;;;4.68;;
55869;SDS011;41790;50.940;4.560;2023-02-28T04:40:53;12.35;;;5.22;;
55869;SDS011;41790;50.940;4.560;2023-02-28T04:43:22;9.23;;;5.90;;
55869;SDS011;41790;50.940;4.560;2023-02-28T04:45:48;11.82;;;5.93;;
55869;SDS011;41790;50.940;4.560;2023-02-28T04:48:14;7.05;;;5.22;;
55869;SDS011;41790;50.940;4.560;2023-02-28T04:50:40;10.38;;;5.35;;
55869;SDS011;41790;50.940;4.560;2023-02-28T04:53:09;6.57;;;4.57;;
55869;SDS011;41790;50.940;4.560;2023-02-28T04:55:35;10.18;;;4.93;;
55869;SDS011;41790;50.940;4.560;2023-02-28T04:58:01;13.27;;;5.53;;
55869;SDS011;41790;50.940;4.560;2023-02-28T05:00:36;10.05;;;4.97;;
55869;SDS011;41790;50.940;4.560;2023-02-28T05:03:02;8.63;;;4.88;;
55869;SDS011;41790;50.940;4.560;2023-02-28T05:05:28;17.40;;;4.93;;
55869;SDS011;41790;50.940;4.560;2023-02-28T05:07:56;7.57;;;4.93;;
55869;SDS011;41790;50.940;4.560;2023-02-28T05:10:22;10.55;;;5.95;;
55869;SDS011;41790;50.940;4.560;2023-02-28T05:12:51;12.23;;;5.72;;
55869;SDS011;41790;50.940;4.560;2023-02-28T05:15:17;18.02;;;6.28;;
55869;SDS011;41790;50.940;4.560;2023-02-28T05:17:43;9.85;;;4.82;;
55869;SDS011;41790;50.940;4.560;2023-02-28T05:20:09;21.38;;;4.95;;
55869;SDS011;41790;50.940;4.560;2023-02-28T05:22:43;12.40;;;5.18;;
55869;SDS011;41790;50.940;4.560;2023-02-28T05:25:13;8.98;;;4.95;;
55869;SDS011;41790;50.940;4.560;2023-02-28T05:27:43;9.30;;;4.53;;
55869;SDS011;41790;50.940;4.560;2023-02-28T05:30:11;9.50;;;4.75;;
55869;SDS011;41790;50.940;4.560;2023-02-28T05:32:49;8.75;;;4.95;;
55869;SDS011;41790;50.940;4.560;2023-02-28T05:35:17;7.07;;;4.30;;
55869;SDS011;41790;50.940;4.560;2023-02-28T05:37:43;10.73;;;5.50;;
55869;SDS011;41790;50.940;4.560;2023-02-28T05:40:09;14.75;;;4.57;;
55869;SDS011;41790;50.940;4.560;2023-02-28T05:42:36;11.05;;;4.63;;
55869;SDS011;41790;50.940;4.560;2023-02-28T05:45:02;12.85;;;5.38;;
55869;SDS011;41790;50.940;4.560;2023-02-28T05:47:29;8.95;;;4.80;;
55869;SDS011;41790;50.940;4.560;2023-02-28T05:49:57;7.80;;;4.30;;
55869;SDS011;41790;50.940;4.560;2023-02-28T05:52:23;8.45;;;4.72;;
55869;SDS011;41790;50.940;4.560;2023-02-28T05:54:50;8.65;;;5.15;;
55869;SDS011;41790;50.940;4.560;2023-02-28T05:57:16;10.82;;;5.22;;
55869;SDS011;41790;50.940;4.560;2023-02-28T05:59:44;7.70;;;4.63;;
55869;SDS011;41790;50.940;4.560;2023-02-28T06:02:14;10.93;;;5.28;;
55869;SDS011;41790;50.940;4.560;2023-02-28T06:04:41;7.53;;;4.60;;
55869;SDS011;41790;50.940;4.560;2023-02-28T06:07:08;11.60;;;5.72;;
55869;SDS011;41790;50.940;4.560;2023-02-28T06:09:43;7.82;;;4.50;;
55869;SDS011;41790;50.940;4.560;2023-02-28T06:12:09;6.65;;;4.30;;
55869;SDS011;41790;50.940;4.560;2023-02-28T06:14:35;8.55;;;4.30;;
55869;SDS011;41790;50.940;4.560;2023-02-28T06:17:04;7.65;;;4.40;;
55869;SDS011;41790;50.940;4.560;2023-02-28T06:19:30;9.88;;;4.38;;
55869;SDS011;41790;50.940;4.560;2023-02-28T06:21:56;11.13;;;5.95;;
55869;SDS011;41790;50.940;4.560;2023-02-28T06:24:26;10.13;;;4.85;;
55869;SDS011;41790;50.940;4.560;2023-02-28T06:26:55;6.78;;;4.57;;
55869;SDS011;41790;50.940;4.560;2023-02-28T06:29:21;9.73;;;5.22;;
55869;SDS011;41790;50.940;4.560;2023-02-28T06:31:47;8.30;;;4.43;;
55869;SDS011;41790;50.940;4.560;2023-02-28T06:34:14;11.52;;;5.20;;
55869;SDS011;41790;50.940;4.560;2023-02-28T06:36:49;6.20;;;3.53;;
55869;SDS011;41790;50.940;4.560;2023-02-28T06:39:16;12.60;;;4.72;;
55869;SDS011;41790;50.940;4.560;2023-02-28T06:41:45;6.70;;;4.28;;
55869;SDS011;41790;50.940;4.560;2023-02-28T06:44:17;9.23;;;4.60;;
55869;SDS011;41790;50.940;4.560;2023-02-28T06:46:50;10.25;;;4.40;;
55869;SDS011;41790;50.940;4.560;2023-02-28T06:49:16;12.32;;;4.63;;
55869;SDS011;41790;50.940;4.560;2023-02-28T06:51:43;6.25;;;4.28;;
55869;SDS011;41790;50.940;4.560;2023-02-28T06:54:12;6.68;;;3.63;;
55869;SDS011;41790;50.940;4.560;2023-02-28T06:56:38;11.18;;;4.55;;
55869;SDS011;41790;50.940;4.560;2023-02-28T06:59:05;8.05;;;4.95;;
55869;SDS011;41790;50.940;4.560;2023-02-28T07:01:31;12.25;;;5.15;;
55869;SDS011;41790;50.940;4.560;2023-02-28T07:03:57;10.30;;;4.55;;
55869;SDS011;41790;50.940;4.560;2023-02-28T07:06:25;10.73;;;5.75;;
55869;SDS011;41790;50.940;4.560;2023-02-28T07:08:51;8.07;;;4.57;;
55869;SDS011;41790;50.940;4.560;2023-02-28T07:11:18;8.05;;;4.65;;
55869;SDS011;41790;50.940;4.560;2023-02-28T07:13:46;7.10;;;4.43;;
55869;SDS011;41790;50.940;4.560;2023-02-28T07:16:12;8.48;;;4.32;;
55869;SDS011;41790;50.940;4.560;2023-02-28T07:18:38;10.98;;;4.80;;
55869;SDS011;41790;50.940;4.560;2023-02-28T07:21:06;9.48;;;3.97;;
55869;SDS011;41790;50.940;4.560;2023-02-28T07:23:34;9.65;;;4.80;;
55869;SDS011;41790;50.940;4.560;2023-02-28T07:26:01;9.10;;;4.90;;
55869;SDS011;41790;50.940;4.560;2023-02-28T07:28:27;7.30;;;4.53;;
55869;SDS011;41790;50.940;4.560;2023-02-28T07:30:56;11.57;;;5.47;;
55869;SDS011;41790;50.940;4.560;2023-02-28T07:33:22;8.48;;;3.95;;
55869;SDS011;41790;50.940;4.560;2023-02-28T07:35:49;6.68;;;4.13;;
55869;SDS011;41790;50.940;4.560;2023-02-28T07:38:15;12.02;;;4.20;;
55869;SDS011;41790;50.940;4.560;2023-02-28T07:40:41;7.10;;;4.55;;
55869;SDS011;41790;50.940;4.560;2023-02-28T07:43:07;5.75;;;3.85;;
55869;SDS011;41790;50.940;4.560;2023-02-28T07:45:33;6.68;;;4.00;;
55869;SDS011;41790;50.940;4.560;2023-02-28T07:48:02;6.63;;;3.90;;
55869;SDS011;41790;50.940;4.560;2023-02-28T07:50:30;7.22;;;3.47;;
55869;SDS011;41790;50.940;4.560;2023-02-28T07:52:57;3.95;;;3.17;;
55869;SDS011;41790;50.940;4.560;2023-02-28T07:55:24;6.43;;;3.50;;
55869;SDS011;41790;50.940;4.560;2023-02-28T07:57:50;9.27;;;3.42;;
55869;SDS011;41790;50.940;4.560;2023-02-28T08:00:16;6.30;;;4.30;;
55869;SDS011;41790;50.940;4.560;2023-02-28T08:02:45;3.55;;;3.05;;
55869;SDS011;41790;50.940;4.560;2023-02-28T08:05:11;6.43;;;3.25;;
55869;SDS011;41790;50.940;4.560;2023-02-28T08:07:37;6.85;;;3.80;;
55869;SDS011;41790;50.940;4.560;2023-02-28T08:10:03;5.75;;;3.83;;
55869;SDS011;41790;50.940;4.560;2023-02-28T08:12:30;5.05;;;3.00;;
55869;SDS011;41790;50.940;4.560;2023-02-28T08:14:56;4.78;;;3.47;;
55869;SDS011;41790;50.940;4.560;2023-02-28T08:17:22;8.38;;;3.47;;
55869;SDS011;41790;50.940;4.560;2023-02-28T08:19:48;4.90;;;3.83;;
55869;SDS011;41790;50.940;4.560;2023-02-28T08:22:15;5.75;;;3.60;;
55869;SDS011;41790;50.940;4.560;2023-02-28T08:24:44;4.85;;;3.40;;
55869;SDS011;41790;50.940;4.560;2023-02-28T08:27:10;7.35;;;3.08;;
55869;SDS011;41790;50.940;4.560;2023-02-28T08:29:36;4.60;;;3.15;;
55869;SDS011;41790;50.940;4.560;2023-02-28T08:32:06;5.60;;;2.90;;
55869;SDS011;41790;50.940;4.560;2023-02-28T08:34:36;5.35;;;3.20;;
55869;SDS011;41790;50.940;4.560;2023-02-28T08:37:05;7.47;;;2.78;;
55869;SDS011;41790;50.940;4.560;2023-02-28T08:39:33;6.28;;;3.42;;
55869;SDS011;41790;50.940;4.560;2023-02-28T08:42:08;4.07;;;2.72;;
55869;SDS011;41790;50.940;4.560;2023-02-28T08:44:34;5.57;;;3.17;;
55869;SDS011;41790;50.940;4.560;2023-02-28T08:47:00;5.40;;;2.38;;
55869;SDS011;41790;50.940;4.560;2023-02-28T08:49:26;5.50;;;2.83;;
55869;SDS011;41790;50.940;4.560;2023-02-28T08:51:53;6.05;;;2.80;;
55869;SDS011;41790;50.940;4.560;2023-02-28T08:54:22;4.85;;;2.72;;
55869;SDS011;41790;50.940;4.560;2023-02-28T08:56:49;6.25;;;2.90;;
55869;SDS011;41790;50.940;4.560;2023-02-28T08:59:15;5.88;;;3.00;;
55869;SDS011;41790;50.940;4.560;2023-02-28T09:01:41;3.70;;;2.75;;
55869;SDS011;41790;50.940;4.560;2023-02-28T09:04:08;3.78;;;2.20;;
55869;SDS011;41790;50.940;4.560;2023-02-28T09:06:36;2.83;;;2.35;;
55869;SDS011;41790;50.940;4.560;2023-02-28T09:09:03;5.45;;;2.72;;
55869;SDS011;41790;50.940;4.560;2023-02-28T09:11:31;5.40;;;2.67;;
55869;SDS011;41790;50.940;4.560;2023-02-28T09:13:58;6.50;;;2.33;;
55869;SDS011;41790;50.940;4.560;2023-02-28T09:16:31;3.97;;;2.67;;
55869;SDS011;41790;50.940;4.560;2023-02-28T09:18:59;3.17;;;2.28;;
55869;SDS011;41790;50.940;4.560;2023-02-28T09:21:38;4.82;;;2.65;;
55869;SDS011;41790;50.940;4.560;2023-02-28T09:24:04;8.32;;;3.95;;
55869;SDS011;41790;50.940;4.560;2023-02-28T09:26:33;3.50;;;2.60;;
55869;SDS011;41790;50.940;4.560;2023-02-28T09:28:59;4.47;;;2.08;;
55869;SDS011;41790;50.940;4.560;2023-02-28T09:31:32;10.60;;;2.58;;
55869;SDS011;41790;50.940;4.560;2023-02-28T09:33:58;2.75;;;2.30;;
55869;SDS011;41790;50.940;4.560;2023-02-28T09:36:25;3.60;;;1.95;;
55869;SDS011;41790;50.940;4.560;2023-02-28T09:38:53;4.15;;;2.38;;
55869;SDS011;41790;50.940;4.560;2023-02-28T09:41:20;3.17;;;1.70;;
55869;SDS011;41790;50.940;4.560;2023-02-28T09:44:00;2.33;;;1.95;;
55869;SDS011;41790;50.940;4.560;2023-02-28T09:46:31;3.30;;;2.58;;
55869;SDS011;41790;50.940;4.560;2023-02-28T09:52:20;9.15;;;2.40;;
55869;SDS011;41790;50.940;4.560;2023-02-28T09:54:54;3.30;;;1.88;;
55869;SDS011;41790;50.940;4.560;2023-02-28T10:00:03;2.88;;;1.73;;
55869;SDS011;41790;50.940;4.560;2023-02-28T10:06:05;1.88;;;1.55;;
55869;SDS011;41790;50.940;4.560;2023-02-28T10:09:03;2.03;;;1.45;;
55869;SDS011;41790;50.940;4.560;2023-02-28T10:11:34;3.35;;;1.23;;
55869;SDS011;41790;50.940;4.560;2023-02-28T10:14:05;2.00;;;1.65;;
55869;SDS011;41790;50.940;4.560;2023-02-28T10:16:58;1.60;;;1.40;;
55869;SDS011;41790;50.940;4.560;2023-02-28T10:19:47;2.25;;;1.67;;
55869;SDS011;41790;50.940;4.560;2023-02-28T10:22:27;3.03;;;1.63;;
55869;SDS011;41790;50.940;4.560;2023-02-28T10:25:05;1.45;;;1.17;;
55869;SDS011;41790;50.940;4.560;2023-02-28T10:32:51;1.92;;;1.27;;
55869;SDS011;41790;50.940;4.560;2023-02-28T10:35:22;3.08;;;1.50;;
55869;SDS011;41790;50.940;4.560;2023-02-28T10:37:53;3.83;;;1.58;;
55869;SDS011;41790;50.940;4.560;2023-02-28T10:40:40;3.05;;;1.48;;
55869;SDS011;41790;50.940;4.560;2023-02-28T10:45:55;1.65;;;1.30;;
55869;SDS011;41790;50.940;4.560;2023-02-28T10:52:32;2.03;;;1.83;;
55869;SDS011;41790;50.940;4.560;2023-02-28T10:57:46;3.75;;;1.70;;
55869;SDS011;41790;50.940;4.560;2023-02-28T11:00:24;5.45;;;1.80;;
55869;SDS011;41790;50.940;4.560;2023-02-28T11:02:59;2.13;;;1.45;;
55869;SDS011;41790;50.940;4.560;2023-02-28T11:05:32;1.90;;;1.15;;
55869;SDS011;41790;50.940;4.560;2023-02-28T11:08:05;1.67;;;1.33;;
55869;SDS011;41790;50.940;4.560;2023-02-28T11:10:37;3.73;;;2.00;;
55869;SDS011;41790;50.940;4.560;2023-02-28T11:13:04;2.80;;;1.80;;
55869;SDS011;41790;50.940;4.560;2023-02-28T11:15:32;2.55;;;1.55;;
55869;SDS011;41790;50.940;4.560;2023-02-28T11:18:02;2.15;;;1.60;;
55869;SDS011;41790;50.940;4.560;2023-02-28T11:20:37;4.43;;;1.98;;
55869;SDS011;41790;50.940;4.560;2023-02-28T11:23:10;2.25;;;1.58;;
55869;SDS011;41790;50.940;4.560;2023-02-28T11:25:39;3.00;;;1.67;;
55869;SDS011;41790;50.940;4.560;2023-02-28T11:28:09;3.13;;;1.65;;
55869;SDS011;41790;50.940;4.560;2023-02-28T11:31:08;2.03;;;1.80;;
55869;SDS011;41790;50.940;4.560;2023-02-28T11:33:53;1.70;;;1.60;;
55869;SDS011;41790;50.940;4.560;2023-02-28T11:38:55;1.75;;;1.60;;
55869;SDS011;41790;50.940;4.560;2023-02-28T11:50:18;3.17;;;1.92;;
55869;SDS011;41790;50.940;4.560;2023-02-28T11:53:31;2.42;;;1.77;;
55869;SDS011;41790;50.940;4.560;2023-02-28T11:56:46;1.65;;;1.50;;
55869;SDS011;41790;50.940;4.560;2023-02-28T12:10:20;2.45;;;1.63;;
55869;SDS011;41790;50.940;4.560;2023-02-28T12:26:44;2.83;;;1.92;;
55869;SDS011;41790;50.940;4.560;2023-02-28T12:29:28;2.15;;;1.80;;
55869;SDS011;41790;50.940;4.560;2023-02-28T12:32:16;1.73;;;1.52;;
55869;SDS011;41790;50.940;4.560;2023-02-28T12:34:58;1.58;;;1.38;;
55869;SDS011;41790;50.940;4.560;2023-02-28T12:37:43;4.05;;;1.90;;
55869;SDS011;41790;50.940;4.560;2023-02-28T12:40:19;1.90;;;1.60;;
55869;SDS011;41790;50.940;4.560;2023-02-28T12:47:50;4.20;;;1.88;;
55869;SDS011;41790;50.940;4.560;2023-02-28T12:50:29;2.08;;;1.70;;
55869;SDS011;41790;50.940;4.560;2023-02-28T12:53:06;3.63;;;1.95;;
55869;SDS011;41790;50.940;4.560;2023-02-28T13:10:08;2.63;;;1.65;;
55869;SDS011;41790;50.940;4.560;2023-02-28T13:12:35;1.63;;;1.38;;
55869;SDS011;41790;50.940;4.560;2023-02-28T13:15:19;2.90;;;1.60;;
55869;SDS011;41790;50.940;4.560;2023-02-28T13:17:53;4.13;;;1.70;;
55869;SDS011;41790;50.940;4.560;2023-02-28T13:20:35;2.75;;;1.50;;
55869;SDS011;41790;50.940;4.560;2023-02-28T13:26:17;2.92;;;1.70;;
55869;SDS011;41790;50.940;4.560;2023-02-28T13:28:59;1.33;;;1.20;;
55869;SDS011;41790;50.940;4.560;2023-02-28T13:31:27;1.80;;;1.67;;
55869;SDS011;41790;50.940;4.560;2023-02-28T13:34:14;2.80;;;1.63;;
55869;SDS011;41790;50.940;4.560;2023-02-28T13:39:55;5.57;;;3.10;;
55869;SDS011;41790;50.940;4.560;2023-02-28T13:47:40;2.58;;;1.75;;
55869;SDS011;41790;50.940;4.560;2023-02-28T14:06:55;2.78;;;1.73;;
55869;SDS011;41790;50.940;4.560;2023-02-28T14:09:26;2.50;;;1.70;;
55869;SDS011;41790;50.940;4.560;2023-02-28T14:21:08;2.05;;;1.83;;
55869;SDS011;41790;50.940;4.560;2023-02-28T14:38:23;3.55;;;1.90;;
55869;SDS011;41790;50.940;4.560;2023-02-28T14:40:53;4.53;;;2.38;;
55869;SDS011;41790;50.940;4.560;2023-02-28T14:43:23;3.15;;;2.38;;
55869;SDS011;41790;50.940;4.560;2023-02-28T14:45:51;4.93;;;2.08;;
55869;SDS011;41790;50.940;4.560;2023-02-28T14:48:20;1.80;;;1.70;;
55869;SDS011;41790;50.940;4.560;2023-02-28T14:50:51;3.00;;;2.20;;
55869;SDS011;41790;50.940;4.560;2023-02-28T14:53:19;3.53;;;2.20;;
55869;SDS011;41790;50.940;4.560;2023-02-28T14:55:48;2.83;;;2.13;;
55869;SDS011;41790;50.940;4.560;2023-02-28T14:58:25;2.92;;;2.17;;
55869;SDS011;41790;50.940;4.560;2023-02-28T15:00:52;3.30;;;2.08;;
55869;SDS011;41790;50.940;4.560;2023-02-28T15:03:39;4.35;;;2.05;;
55869;SDS011;41790;50.940;4.560;2023-02-28T15:06:14;2.28;;;1.67;;
55869;SDS011;41790;50.940;4.560;2023-02-28T15:08:42;3.38;;;2.28;;
55869;SDS011;41790;50.940;4.560;2023-02-28T15:11:13;4.63;;;2.55;;
55869;SDS011;41790;50.940;4.560;2023-02-28T15:13:45;3.80;;;2.38;;
55869;SDS011;41790;50.940;4.560;2023-02-28T15:18:49;2.85;;;1.85;;
55869;SDS011;41790;50.940;4.560;2023-02-28T15:21:35;2.33;;;1.98;;
55869;SDS011;41790;50.940;4.560;2023-02-28T15:24:09;1.98;;;1.77;;
55869;SDS011;41790;50.940;4.560;2023-02-28T15:26:45;2.38;;;1.92;;
55869;SDS011;41790;50.940;4.560;2023-02-28T15:29:25;4.35;;;2.08;;
55869;SDS011;41790;50.940;4.560;2023-02-28T15:32:00;2.80;;;2.22;;
55869;SDS011;41790;50.940;4.560;2023-02-28T15:40:57;3.85;;;1.80;;
55869;SDS011;41790;50.940;4.560;2023-02-28T15:43:27;7.40;;;2.28;;
55869;SDS011;41790;50.940;4.560;2023-02-28T15:48:56;3.00;;;2.30;;
55869;SDS011;41790;50.940;4.560;2023-02-28T15:51:23;3.13;;;2.13;;
55869;SDS011;41790;50.940;4.560;2023-02-28T15:54:01;2.47;;;1.77;;
55869;SDS011;41790;50.940;4.560;2023-02-28T15:56:42;4.05;;;2.05;;
55869;SDS011;41790;50.940;4.560;2023-02-28T15:59:26;2.65;;;1.70;;
55869;SDS011;41790;50.940;4.560;2023-02-28T16:04:54;4.80;;;1.80;;
55869;SDS011;41790;50.940;4.560;2023-02-28T16:07:40;3.30;;;2.08;;
55869;SDS011;41790;50.940;4.560;2023-02-28T16:10:21;5.07;;;2.08;;
55869;SDS011;41790;50.940;4.560;2023-02-28T16:12:52;3.15;;;2.00;;
55869;SDS011;41790;50.940;4.560;2023-02-28T16:15:28;2.28;;;2.00;;
55869;SDS011;41790;50.940;4.560;2023-02-28T16:17:56;3.67;;;2.05;;
55869;SDS011;41790;50.940;4.560;2023-02-28T16:20:27;3.95;;;2.17;;
55869;SDS011;41790;50.940;4.560;2023-02-28T16:22:54;2.72;;;1.90;;
55869;SDS011;41790;50.940;4.560;2023-02-28T16:25:38;2.85;;;1.63;;
55869;SDS011;41790;50.940;4.560;2023-02-28T16:28:12;3.28;;;2.08;;
55869;SDS011;41790;50.940;4.560;2023-02-28T16:31:02;3.50;;;1.77;;
55869;SDS011;41790;50.940;4.560;2023-02-28T16:33:29;3.05;;;1.95;;
55869;SDS011;41790;50.940;4.560;2023-02-28T16:35:59;3.05;;;2.35;;
55869;SDS011;41790;50.940;4.560;2023-02-28T16:38:25;4.72;;;1.92;;
55869;SDS011;41790;50.940;4.560;2023-02-28T16:40:57;2.63;;;2.25;;
55869;SDS011;41790;50.940;4.560;2023-02-28T16:43:25;7.15;;;1.80;;
55869;SDS011;41790;50.940;4.560;2023-02-28T16:45:55;2.55;;;2.00;;
55869;SDS011;41790;50.940;4.560;2023-02-28T16:48:32;5.22;;;1.52;;
55869;SDS011;41790;50.940;4.560;2023-02-28T16:51:01;3.25;;;1.73;;
55869;SDS011;41790;50.940;4.560;2023-02-28T16:53:29;4.70;;;2.05;;
55869;SDS011;41790;50.940;4.560;2023-02-28T16:56:03;2.97;;;1.95;;
55869;SDS011;41790;50.940;4.560;2023-02-28T16:58:40;4.55;;;2.20;;
55869;SDS011;41790;50.940;4.560;2023-02-28T17:01:06;2.97;;;2.22;;
55869;SDS011;41790;50.940;4.560;2023-02-28T17:03:32;4.00;;;1.92;;
55869;SDS011;41790;50.940;4.560;2023-02-28T17:05:58;3.53;;;2.00;;
55869;SDS011;41790;50.940;4.560;2023-02-28T17:08:24;3.72;;;1.80;;
55869;SDS011;41790;50.940;4.560;2023-02-28T17:10:53;6.63;;;3.75;;
55869;SDS011;41790;50.940;4.560;2023-02-28T17:13:27;2.75;;;1.73;;
55869;SDS011;41790;50.940;4.560;2023-02-28T17:15:53;5.43;;;2.35;;
55869;SDS011;41790;50.940;4.560;2023-02-28T17:18:23;2.55;;;2.03;;
55869;SDS011;41790;50.940;4.560;2023-02-28T17:20:51;5.15;;;2.90;;
55869;SDS011;41790;50.940;4.560;2023-02-28T17:23:17;5.03;;;1.90;;
55869;SDS011;41790;50.940;4.560;2023-02-28T17:25:43;3.85;;;2.20;;
55869;SDS011;41790;50.940;4.560;2023-02-28T17:28:18;4.47;;;2.53;;
55869;SDS011;41790;50.940;4.560;2023-02-28T17:30:46;3.72;;;2.13;;
55869;SDS011;41790;50.940;4.560;2023-02-28T17:33:15;7.95;;;2.40;;
55869;SDS011;41790;50.940;4.560;2023-02-28T17:35:41;6.05;;;2.15;;
55869;SDS011;41790;50.940;4.560;2023-02-28T17:38:16;3.55;;;2.00;;
55869;SDS011;41790;50.940;4.560;2023-02-28T17:40:44;4.63;;;2.38;;
55869;SDS011;41790;50.940;4.560;2023-02-28T17:43:10;3.65;;;2.20;;
55869;SDS011;41790;50.940;4.560;2023-02-28T17:45:36;2.92;;;2.15;;
55869;SDS011;41790;50.940;4.560;2023-02-28T17:48:02;4.28;;;2.67;;
55869;SDS011;41790;50.940;4.560;2023-02-28T17:50:28;3.47;;;2.53;;
55869;SDS011;41790;50.940;4.560;2023-02-28T17:52:54;5.38;;;2.92;;
55869;SDS011;41790;50.940;4.560;2023-02-28T17:55:21;6.82;;;3.08;;
55869;SDS011;41790;50.940;4.560;2023-02-28T17:57:47;7.90;;;3.20;;
55869;SDS011;41790;50.940;4.560;2023-02-28T18:00:17;8.63;;;3.17;;
55869;SDS011;41790;50.940;4.560;2023-02-28T18:02:44;3.72;;;3.28;;
55869;SDS011;41790;50.940;4.560;2023-02-28T18:05:10;6.40;;;3.17;;
55869;SDS011;41790;50.940;4.560;2023-02-28T18:07:37;7.82;;;4.10;;
55869;SDS011;41790;50.940;4.560;2023-02-28T18:10:04;4.60;;;3.10;;
55869;SDS011;41790;50.940;4.560;2023-02-28T18:12:40;8.63;;;3.50;;
55869;SDS011;41790;50.940;4.560;2023-02-28T18:15:06;5.05;;;3.25;;
55869;SDS011;41790;50.940;4.560;2023-02-28T18:17:32;6.63;;;3.38;;
55869;SDS011;41790;50.940;4.560;2023-02-28T18:19:58;4.10;;;2.92;;
55869;SDS011;41790;50.940;4.560;2023-02-28T18:22:24;6.28;;;3.55;;